KBBD/BBD METAR and TAF weather

Enter ICAO airport designator
Station Type Date Time Source
KBBD METAR 2019/02/23 17:35 UTC NOAA

KBBD 231735Z AUTO 29020G28KT 10SM CLR 15/M08 A2997 RMK AO2


Station Type Date Time Source
KBBD Decoded METAR 2019/02/23 17:35 UTC NOAA

Brady, Curtis Field Airport, TX, United States (KBBD) 31-10-45N 099-19-26W
Feb 23, 2019 - 12:35 PM EST / 2019.02.23 1735 UTC
Wind: from the WNW (290 degrees) at 23 MPH (20 KT) gusting to 32 MPH (28 KT):0
Visibility: 10 mile(s):0
Sky conditions: clear
Temperature: 59 F (15 C)
Dew Point: 17 F (-8 C)
Relative Humidity: 19%
Pressure (altimeter): 29.97 in. Hg (1014 hPa)
ob: KBBD 231735Z AUTO 29020G28KT 10SM CLR 15/M08 A2997 RMK AO2
cycle: 17

Station Type Date Time Source
KBBD TAF 2019/02/23 18:22 UTC NOAA

TAF KBBD 231720Z 2318/2418 29022G30KT P6SM SCT250
FM232100 27024G34KT P6SM SKC
FM240000 28011KT P6SM SKC
FM240300 29006KT P6SM SKC


Example: see airport list